Time,TemperatureF,DewpointF,PressureIn,WindDirection,WindDirectionDegrees,WindSpeedMPH,WindSpeedGustMPH,Humidity,HourlyPrecipIn,Conditions,Clouds,dailyrainin,SoftwareType,DateUTC
2013-07-28 00:00:00,88.0,49.0,-100.00,North,-999,-999.0,-999.0,26,0.00,,,0.00,,2013-07-28 07:00:00,
2013-07-28 01:00:00,87.0,51.0,-100.00,North,-999,-999.0,-999.0,29,0.00,,,0.00,,2013-07-28 08:00:00,
2013-07-28 01:53:00,87.0,51.0,-100.00,North,-999,-999.0,-999.0,29,0.00,,,0.00,,2013-07-28 08:53:00,
2013-07-28 02:00:00,85.0,52.0,-100.00,North,-999,-999.0,-999.0,32,0.00,,,0.00,,2013-07-28 09:00:00,
2013-07-28 03:00:00,83.0,53.0,-100.00,North,-999,-999.0,-999.0,35,0.00,,,0.00,,2013-07-28 10:00:00,
2013-07-28 04:00:00,82.0,53.0,-100.00,North,-999,-999.0,-999.0,36,0.00,,,0.00,,2013-07-28 11:00:00,
2013-07-28 04:54:00,82.0,53.0,-100.00,North,-999,-999.0,-999.0,36,0.00,,,0.00,,2013-07-28 11:54:00,
2013-07-28 05:00:00,81.0,55.0,-100.00,North,-999,-999.0,-999.0,41,0.00,,,0.00,,2013-07-28 12:00:00,
2013-07-28 05:53:00,81.0,55.0,-100.00,North,-999,-999.0,-999.0,41,0.00,,,0.00,,2013-07-28 12:53:00,
2013-07-28 06:00:00,80.0,56.0,-100.00,North,-999,-999.0,-999.0,45,0.00,,,0.00,,2013-07-28 13:00:00,
2013-07-28 07:00:00,79.0,56.0,-100.00,North,-999,-999.0,-999.0,45,0.00,,,0.00,,2013-07-28 14:00:00,
2013-07-28 08:00:00,81.0,57.0,-100.00,North,-999,-999.0,-999.0,44,0.00,,,0.00,,2013-07-28 15:00:00,
2013-07-28 09:00:00,89.0,52.0,-100.00,North,-999,-999.0,-999.0,29,0.00,,,0.00,,2013-07-28 16:00:00,
2013-07-28 10:00:00,92.0,51.0,-100.00,North,-999,-999.0,-999.0,25,0.00,,,0.00,,2013-07-28 17:00:00,
2013-07-28 11:00:00,93.0,51.0,-100.00,North,-999,-999.0,-999.0,24,0.00,,,0.00,,2013-07-28 18:00:00,
2013-07-28 11:52:00,93.0,51.0,-100.00,North,-999,-999.0,-999.0,24,0.00,,,0.00,,2013-07-28 18:52:00,
2013-07-28 12:00:00,96.0,49.0,-100.00,North,-999,-999.0,-999.0,21,0.00,,,0.00,,2013-07-28 19:00:00,
2013-07-28 12:52:00,96.0,49.0,-100.00,North,-999,-999.0,-999.0,21,0.00,,,0.00,,2013-07-28 19:52:00,
2013-07-28 13:00:00,100.0,50.0,-100.00,North,-999,-999.0,-999.0,19,0.00,,,0.00,,2013-07-28 20:00:00,
2013-07-28 13:53:00,100.0,50.0,-100.00,North,-999,-999.0,-999.0,19,0.00,,,0.00,,2013-07-28 20:53:00,
2013-07-28 14:00:00,101.0,48.0,-100.00,North,-999,-999.0,-999.0,17,0.00,,,0.00,,2013-07-28 21:00:00,
2013-07-28 16:00:00,103.0,41.0,-100.00,North,-999,-999.0,-999.0,12,0.00,,,0.00,,2013-07-28 23:00:00,
2013-07-28 17:00:00,105.0,42.0,-100.00,North,-999,-999.0,-999.0,12,0.00,,,0.00,,2013-07-29 00:00:00,
2013-07-28 18:00:00,103.0,42.0,-100.00,North,-999,-999.0,-999.0,13,0.00,,,0.00,,2013-07-29 01:00:00,
2013-07-28 19:00:00,101.0,43.0,-100.00,North,-999,-999.0,-999.0,14,0.00,,,0.00,,2013-07-29 02:00:00,
2013-07-28 20:00:00,98.0,42.0,-100.00,North,-999,-999.0,-999.0,15,0.00,,,0.00,,2013-07-29 03:00:00,
2013-07-28 21:00:00,94.0,50.0,-100.00,North,-999,-999.0,-999.0,22,0.00,,,0.00,,2013-07-29 04:00:00,
2013-07-28 22:00:00,91.0,50.0,-100.00,North,-999,-999.0,-999.0,25,0.00,,,0.00,,2013-07-29 05:00:00,
2013-07-28 22:53:00,91.0,50.0,-100.00,North,-999,-999.0,-999.0,25,0.00,,,0.00,,2013-07-29 05:53:00,
2013-07-28 23:00:00,88.0,53.0,-100.00,North,-999,-999.0,-999.0,31,0.00,,,0.00,,2013-07-29 06:00:00,